2.502,22 22:41:54
Pkt Einheit
Index Typ
0,06% %
1,62 abs
ISIN: US78378X1072 WKN: A0AET0 Börse: Chicago Mercantile Exchange Datum: 22:09:17

S&P 500 Index

Name Kurs +/- abs. +/- % Zeit Vorwoche 1 Monat 3 Monate 1 Jahr YTD
21st Century Fox Inc. 26,430 0,100 0,38 22.09.17 -0,83 % -2,04 % -0,75 % 6,83 % -3,01 %
21st Century Fox Inc. 26,880 0,120 0,45 22.09.17 -0,63 % -2,01 % -0,33 % 10,62 % -4,14 %
3M Co. 210,760 0,320 0,15 22.09.17 -1,21 % 2,58 % -0,69 % 17,19 % 18,03 %
Abbott Laboratories 52,510 1,080 2,10 22.09.17 1,45 % 5,63 % 6,58 % 24,37 % 36,71 %
AbbVie Inc. 87,480 0,070 0,08 22.09.17 0,13 % 21,92 % 19,54 % 34,42 % 39,70 %
Accenture PLC 137,900 1,240 0,91 22.09.17 1,88 % 6,64 % 12,96 % 21,33 % 17,73 %
Activision Blizzard Inc. 63,900 -0,210 -0,33 22.09.17 -1,69 % -0,54 % 4,48 % 43,56 % 76,96 %
Acuity Brands Inc. 163,990 2,570 1,59 22.09.17 -3,82 % -9,40 % -7,22 % -37,16 % -28,97 %
Adobe Systems Inc. 148,500 -0,800 -0,54 22.09.17 -3,88 % -2,46 % 3,35 % 37,60 % 44,24 %
Advance Auto Parts Inc. 95,590 1,910 2,04 22.09.17 -3,94 % -0,22 % -20,80 % -35,91 % -43,48 %
Advanced Micro Devices Inc. 13,300 -0,110 -0,82 22.09.17 6,23 % 9,29 % -7,51 % 108,79 % 17,28 %
AES Corp., The 11,110 -0,020 -0,18 22.09.17 -2,11 % -2,11 % -3,98 % -15,77 % -4,39 %
Aetna Inc. 153,570 0,160 0,10 22.09.17 -5,60 % -1,97 % 0,39 % 31,33 % 23,84 %
Affiliated Managers Group Inc. 184,970 0,790 0,43 22.09.17 2,84 % 5,46 % 14,14 % 25,58 % 27,30 %
AFLAC Inc. 83,940 0,310 0,37 22.09.17 1,36 % 4,70 % 8,56 % 14,17 % 20,60 %
Agilent Technologies Inc. 65,780 -0,140 -0,21 22.09.17 -0,27 % 4,48 % 8,53 % 40,95 % 44,38 %
Air Products & Chemicals Inc. 150,180 -0,870 -0,58 22.09.17 0,03 % 2,90 % 4,11 % 1,37 % 4,42 %
Akamai Technologies Inc. 48,330 0,810 1,70 22.09.17 2,09 % 5,50 % -3,38 % -7,82 % -27,52 %
Alaska Air Group Inc. 74,750 1,840 2,52 22.09.17 -0,70 % -3,06 % -17,88 % 13,19 % -15,76 %
Albemarle Corp. 134,290 -0,600 -0,44 22.09.17 5,50 % 15,95 % 27,65 % 65,38 % 56,01 %
Alexandria Real Est. Equ. Inc. 118,060 -1,280 -1,07 22.09.17 -2,04 % -1,67 % -2,26 % 4,45 % 6,24 %
Alexion Pharmaceuticals Inc. 142,820 -0,100 -0,07 22.09.17 -2,64 % 3,34 % 13,14 % 6,83 % 16,73 %
Align Technology Inc. 188,000 1,680 0,90 22.09.17 1,90 % 8,95 % 25,59 % 96,51 % 95,57 %
Allegion PLC 84,550 1,080 1,29 22.09.17 2,15 % 8,29 % 4,14 % 22,45 % 32,11 %
Allergan Inc. 204,650 1,990 0,98 22.09.17 -7,10 % -8,54 % -17,18 % -15,93 % -2,55 %
Alliance Data Systems Corp. 216,760 0,950 0,44 22.09.17 0,35 % -2,75 % -16,52 % -0,60 % -5,14 %
Alliant Energy Corp. 41,730 -0,330 -0,78 22.09.17 -2,73 % -2,32 % 0,34 % 4,38 % 10,13 %
Allstate Corp., The 90,530 -0,140 -0,15 22.09.17 -0,39 % -3,46 % 2,51 % 31,32 % 22,14 %
Alphabet Inc. (Class A) 943,260 -4,290 -0,45 22.09.17 0,85 % 0,30 % -3,42 % 15,60 % 19,03 %
Alphabet Inc. (Class C) 928,530 -3,920 -0,42 22.09.17 0,90 % 0,42 % -2,98 % 17,95 % 20,30 %
Altria Group Inc. 62,490 0,990 1,61 22.09.17 0,16 % -2,45 % -18,29 % -2,54 % -7,59 %
Amazon.com Inc. 955,100 -9,550 -0,99 22.09.17 -3,21 % -1,22 % -4,61 % 18,69 % 27,37 %
Ameren Corp. 58,510 -0,300 -0,51 22.09.17 -2,17 % -2,34 % 3,98 % 13,81 % 11,53 %
American Airlines Group Inc. 47,060 0,770 1,66 22.09.17 2,30 % 3,63 % -3,90 % 33,50 % 0,79 %
American Electric Power Co.Inc 70,570 -0,880 -1,23 22.09.17 -3,37 % -3,08 % -1,70 % 5,96 % 12,09 %
American Express Co. 88,400 -0,020 -0,02 22.09.17 1,62 % 3,63 % 7,48 % 36,78 % 19,33 %
American International Grp Inc 60,710 0,210 0,35 22.09.17 1,83 % -0,83 % -3,71 % 2,92 % -7,04 %
American Tower Corp. 137,780 -1,620 -1,16 22.09.17 -4,99 % -3,03 % 5,28 % 22,71 % 30,37 %
American Water Works Co. Inc. 82,000 0,210 0,26 22.09.17 -0,82 % -0,23 % 1,11 % 6,00 % 13,32 %
Ameriprise Financial Inc. 142,920 0,800 0,56 22.09.17 2,19 % 2,98 % 13,11 % 41,66 % 28,81 %
AmerisourceBergen Corp. 81,050 0,670 0,83 22.09.17 -0,67 % 2,30 % -15,90 % -3,04 % 3,66 %
AMETEK Inc. 65,590 -0,520 -0,79 22.09.17 0,40 % 4,21 % 8,27 % 36,33 % 34,96 %
Amgen Inc. 185,760 -0,880 -0,47 22.09.17 -0,91 % 9,19 % 6,87 % 5,77 % 27,07 %
Amphenol Corp. 82,940 -0,200 -0,24 22.09.17 0,44 % 4,07 % 11,52 % 26,28 % 23,42 %
Anadarko Petroleum Corp. 48,830 0,340 0,70 22.09.17 12,12 % 15,52 % 8,29 % -20,23 % -29,97 %
Analog Devices Inc. 84,920 0,680 0,81 22.09.17 1,29 % 7,26 % 4,43 % 33,35 % 16,94 %
Andeavor 104,000 0,190 0,18 22.09.17 1,54 % 11,31 % 14,21 % 25,38 % 18,93 %
Ansys Inc. 122,050 1,230 1,02 22.09.17 0,19 % -5,39 % -0,49 % 30,94 % 31,96 %
Anthem Inc. 182,860 -0,640 -0,35 22.09.17 -2,00 % -6,20 % -5,43 % 42,39 % 27,19 %
AON PLC 146,020 1,080 0,75 22.09.17 1,89 % 4,62 % 8,77 % 28,81 % 30,92 %
Apache Corp. 43,570 0,210 0,48 22.09.17 2,47 % 9,23 % -4,51 % -28,57 % -31,35 %
Apartment Inv. & Managem. Co. 44,750 -0,140 -0,31 22.09.17 -1,84 % -1,39 % 2,10 % -3,93 % -1,54 %
Apple Inc. 151,890 -1,500 -0,98 22.09.17 -5,00 % -4,94 % 4,30 % 32,52 % 31,14 %
Applied Materials Inc. 47,770 0,620 1,31 22.09.17 1,34 % 7,47 % 10,22 % 57,71 % 48,03 %
Archer Daniels Midland Co. 43,380 0,090 0,21 22.09.17 -1,05 % 3,98 % 5,73 % 0,93 % -4,97 %
Arconic Inc. 26,210 -0,580 -2,16 22.09.17 3,43 % 2,02 % 3,60 % 0,00 % 41,37 %
Assurant Inc. 94,450 0,850 0,91 22.09.17 0,64 % -5,46 % -5,79 % 3,47 % 1,71 %
AT & T Inc. 38,590 0,370 0,97 22.09.17 4,02 % 1,61 % 1,29 % -6,13 % -9,26 %
Autodesk Inc. 111,780 -0,510 -0,45 22.09.17 -2,06 % 0,69 % 4,68 % 54,50 % 51,03 %
Automatic Data Processing Inc. 108,160 1,370 1,28 22.09.17 1,29 % 4,28 % 6,13 % 20,90 % 5,23 %
AutoZone Inc. 574,030 20,540 3,71 22.09.17 0,73 % 10,58 % -0,97 % -23,28 % -27,32 %
Avalonbay Communities Inc. 178,520 -1,290 -0,72 22.09.17 -2,86 % -5,58 % -7,91 % -1,97 % 0,77 %
Avery Dennison Corp. 98,760 -0,060 -0,06 22.09.17 1,99 % 5,98 % 12,80 % 25,27 % 40,64 %
Baker Hughes a GE Co. 36,670 0,090 0,25 22.09.17 -0,62 % 12,17 % 0,00 % 0,00 % 0,00 %
Ball Corp. 41,000 0,200 0,49 22.09.17 1,16 % 3,12 % -1,61 % 2,90 % 9,23 %
Bank of America Corp. 25,020 -0,140 -0,56 22.09.17 2,63 % 4,99 % 9,11 % 60,38 % 13,21 %
Bard Inc. C.R. 318,630 1,260 0,40 22.09.17 -0,29 % -0,50 % 0,84 % 37,73 % 41,83 %
Baxter International Inc. 63,510 0,130 0,21 22.09.17 -0,70 % 2,20 % 4,66 % 31,76 % 43,23 %
BB&T Corp. 45,220 -0,020 -0,04 22.09.17 2,45 % -1,97 % 4,34 % 18,56 % -3,83 %
Becton, Dickinson & Co. 193,060 1,500 0,78 22.09.17 -1,17 % -3,64 % -1,03 % 6,34 % 16,62 %
Berkshire Hathaway Inc. 181,860 -1,300 -0,71 22.09.17 1,10 % 0,78 % 8,00 % 24,11 % 11,58 %
Best Buy Co. Inc. 53,900 -0,050 -0,09 22.09.17 -8,04 % -12,77 % -2,39 % 40,11 % 26,32 %
Biogen Inc. 318,460 3,430 1,09 22.09.17 -0,87 % 11,07 % 13,50 % 1,16 % 12,30 %
Bk of New York MellonCorp.,The 52,370 -0,050 -0,10 22.09.17 1,57 % -0,55 % 5,69 % 29,79 % 10,53 %
Blackrock Inc. 435,490 1,860 0,43 22.09.17 1,58 % 3,35 % 2,91 % 16,48 % 14,44 %
Block H. & R. Inc. 26,750 0,540 2,06 22.09.17 3,36 % -11,54 % -14,13 % 16,00 % 16,35 %
Boeing Co. 256,450 0,410 0,16 22.09.17 2,99 % 6,97 % 28,59 % 94,47 % 64,73 %
BorgWarner Inc. 49,960 0,370 0,75 22.09.17 2,46 % 11,20 % 22,27 % 42,34 % 26,67 %
Boston Properties Inc. 121,680 -1,160 -0,94 22.09.17 -0,59 % 1,72 % -2,53 % -12,49 % -3,26 %
Boston Scientific Corp. 28,850 0,090 0,31 22.09.17 -0,28 % 6,03 % 3,55 % 21,58 % 33,38 %
Brighthouse Financial Inc. 58,350 0,670 1,16 22.09.17 3,16 % 1,97 % 0,00 % 0,00 % 0,00 %
Bristol-Myers Squibb Co. 63,360 0,030 0,05 22.09.17 1,41 % 9,87 % 10,52 % 12,30 % 8,42 %
Broadcom Ltd. 239,240 -1,140 -0,47 22.09.17 -4,51 % -6,25 % -1,97 % 41,70 % 35,34 %
Brown-Forman Corp. Class B 54,230 0,240 0,44 22.09.17 0,59 % 6,56 % 11,26 % 14,02 % 20,73 %
C.H. Robinson Worldwide Inc. 73,130 0,130 0,18 22.09.17 2,35 % 8,99 % 8,66 % 5,60 % -0,18 %
CA Inc. 32,680 0,320 0,99 22.09.17 -1,27 % 0,52 % -6,92 % -0,24 % 2,86 %
Cabot Oil & Gas Corp. 26,580 0,170 0,64 22.09.17 -0,86 % 6,41 % 16,27 % 3,95 % 13,78 %
Cadence Design Systems Inc. 38,880 0,450 1,17 22.09.17 1,59 % 3,82 % 13,42 % 55,02 % 54,16 %
Campbell Soup Co. 45,130 -0,530 -1,16 22.09.17 -7,39 % -16,43 % -16,35 % -18,52 % -25,37 %
Capital One Financial Corp. 81,940 0,360 0,44 22.09.17 2,37 % 0,61 % 1,93 % 13,58 % -6,08 %
Cardinal Health Inc. 66,660 -0,110 -0,16 22.09.17 -1,24 % 1,90 % -15,35 % -14,05 % -7,38 %
Carmax Inc. 74,190 5,350 7,77 22.09.17 8,97 % 16,19 % 18,70 % 36,50 % 15,22 %
Carnival Corp. 64,330 -0,120 -0,19 22.09.17 -2,44 % -5,80 % -2,07 % 37,34 % 23,57 %
Caterpillar Inc. 124,430 -0,350 -0,28 22.09.17 2,52 % 7,43 % 19,83 % 49,02 % 34,17 %
CBOE Holdings Inc. 106,600 0,340 0,32 22.09.17 1,84 % 7,56 % 20,36 % 53,43 % 44,27 %
CBRE Group Inc. 37,180 -0,010 -0,03 22.09.17 1,53 % 3,36 % 5,33 % 26,85 % 18,07 %
CBS Corp. Class B 59,230 0,440 0,75 22.09.17 1,72 % -9,78 % -5,31 % 18,29 % -6,90 %
Celgene Corp. 143,890 0,110 0,08 22.09.17 1,30 % 10,44 % 7,64 % 30,13 % 24,31 %
Centene Corp. 92,220 1,480 1,63 22.09.17 -3,92 % 6,93 % 11,11 % 33,65 % 63,19 %
CenterPoint Energy Inc. 29,200 -0,290 -0,98 22.09.17 -3,53 % -1,05 % 3,95 % 21,11 % 18,51 %
CenturyLink Inc. 18,540 0,050 0,27 22.09.17 -2,29 % -6,83 % -23,86 % -32,85 % -22,04 %
Cerner Corp. 69,630 0,150 0,22 22.09.17 -2,59 % 6,52 % 3,40 % 10,56 % 46,99 %
CF Industries Holdings Inc. 35,230 -0,730 -2,03 22.09.17 7,11 % 20,49 % 28,86 % 51,66 % 11,91 %
Charter Communications Inc. 360,300 -0,780 -0,22 22.09.17 -2,48 % -9,26 % 7,83 % 30,20 % 25,14 %
Chesapeake Energy Corp. 4,220 0,050 1,20 22.09.17 5,50 % 9,61 % -6,22 % -38,57 % -39,89 %
Chevron Corp. 117,290 0,820 0,70 22.09.17 2,32 % 10,28 % 12,29 % 17,31 % -0,35 %
Chipotle Mexican Grill Inc. 314,310 1,090 0,35 22.09.17 0,39 % 2,88 % -25,33 % -23,37 % -16,70 %
Chubb Corp., The 142,590 -0,360 -0,25 22.09.17 -0,64 % -1,87 % -2,03 % 11,88 % 7,92 %
Church & Dwight Co. Inc. 48,610 0,120 0,25 22.09.17 -3,61 % -3,49 % -8,01 % -0,39 % 10,00 %
Cigna Corp. 182,740 0,610 0,33 22.09.17 -1,78 % 1,62 % 7,07 % 38,44 % 37,00 %
Cimarex Energy Co. 110,850 1,480 1,35 22.09.17 3,87 % 11,73 % 21,37 % -13,38 % -18,43 %
Cincinnati Financial Corp. 75,880 0,300 0,40 22.09.17 0,88 % -2,05 % 6,19 % -0,30 % 0,17 %
Cintas Corp. 136,650 -0,800 -0,58 22.09.17 1,86 % 1,03 % 5,80 % 18,72 % 18,25 %
Cisco Systems Inc. 33,370 0,670 2,05 22.09.17 2,87 % 6,72 % 4,77 % 5,40 % 10,42 %
Citigroup Inc. 71,400 -0,360 -0,50 22.09.17 3,42 % 6,81 % 12,23 % 51,56 % 20,14 %
Citizens Financial Group Inc. 36,350 0,080 0,22 22.09.17 3,38 % 8,77 % 3,92 % 49,96 % 2,02 %
Citrix Systems Inc. 76,230 -0,050 -0,07 22.09.17 0,01 % 0,29 % -6,10 % -10,49 % -14,65 %
Clorox Co., The 129,830 -1,500 -1,14 22.09.17 -4,66 % -6,62 % -6,85 % 2,58 % 8,17 %
CME Group Inc. 134,170 0,370 0,28 22.09.17 2,19 % 6,17 % 8,15 % 23,75 % 16,32 %
CMS Energy Corp. 46,470 -0,590 -1,25 22.09.17 -2,92 % -3,71 % -2,41 % 6,19 % 11,65 %
Coach Inc. 39,950 0,340 0,86 22.09.17 -3,50 % -2,51 % -14,05 % 9,09 % 14,08 %
Cognizant Tech. Solutions 72,060 0,200 0,28 22.09.17 0,33 % 2,72 % 7,36 % 32,95 % 28,56 %
Colgate-Palmolive Co. 71,190 -0,180 -0,25 22.09.17 -1,51 % -0,63 % -5,75 % -3,18 % 8,79 %
Comcast Corp. Class A 38,100 0,630 1,68 22.09.17 3,17 % -7,86 % -4,61 % 13,24 % 10,35 %
Comerica Inc. 73,420 0,090 0,12 22.09.17 6,27 % 5,11 % 2,80 % 57,08 % 7,80 %
ConAgra Brands Inc. 33,150 -0,270 -0,81 22.09.17 -5,31 % -3,94 % -10,62 % -23,95 % -16,18 %
Concho Resources Inc. 127,060 0,760 0,60 22.09.17 3,44 % 16,12 % 11,57 % -0,48 % -4,18 %
ConocoPhillips 49,080 0,390 0,80 22.09.17 5,53 % 13,64 % 9,53 % 19,65 % -2,11 %
Consolidated Edison Inc. 81,590 -0,840 -1,02 22.09.17 -3,38 % -2,79 % -3,10 % 3,47 % 10,74 %
Constellation Brands Inc. 201,810 0,790 0,39 22.09.17 -0,78 % 2,58 % 9,61 % 21,56 % 31,64 %
Cooper Companies Inc. 239,770 7,360 3,17 22.09.17 -2,22 % -3,75 % -2,16 % 29,96 % 37,07 %
Corning Inc. 30,050 -0,050 -0,17 22.09.17 2,39 % 5,44 % 1,14 % 30,03 % 23,82 %
Costco Wholesale Corp. 161,290 -0,190 -0,12 22.09.17 -0,62 % 1,63 % 0,94 % 5,32 % 0,74 %
Coty Inc. 16,150 0,150 0,94 22.09.17 -4,21 % -8,81 % -15,36 % -30,95 % -11,80 %
Crown Castle Internatl Corp. 100,600 -1,000 -0,98 22.09.17 -4,63 % -4,86 % 0,86 % 6,08 % 15,94 %
CSRA Inc. 32,060 -0,030 -0,09 22.09.17 0,25 % 1,10 % 1,30 % 18,17 % 0,69 %
CSX Corp. 53,100 0,250 0,47 22.09.17 1,18 % 6,37 % 0,95 % 79,57 % 47,79 %
Cummins Inc. 167,980 1,500 0,90 22.09.17 1,66 % 9,72 % 5,67 % 37,78 % 22,91 %
CVS Health Corp. 79,630 0,070 0,09 22.09.17 -4,26 % 2,40 % 3,12 % -12,08 % 0,91 %
D.R. Horton Inc. 36,900 0,040 0,11 22.09.17 -0,73 % 3,74 % 10,25 % 20,55 % 35,02 %
Danaher Corp. 86,780 0,360 0,42 22.09.17 -1,62 % 5,16 % 0,95 % 11,73 % 11,49 %
Darden Restaurants Inc. 82,880 -0,180 -0,22 22.09.17 -1,17 % -2,84 % -7,04 % 33,70 % 13,97 %
DaVita Inc. 57,490 -3,770 -6,15 22.09.17 -3,59 % 1,25 % -11,65 % -13,83 % -10,45 %
Deere & Co. 123,750 -1,030 -0,83 22.09.17 3,98 % 5,34 % -0,09 % 47,04 % 20,10 %
Delphi Automotive PLC 102,780 1,740 1,72 22.09.17 2,59 % 9,13 % 19,86 % 46,35 % 52,61 %
Delta Air Lines Inc. 48,470 0,310 0,64 22.09.17 0,46 % 2,80 % -8,22 % 25,90 % -1,46 %
Dentsply Sirona Inc. 58,530 0,720 1,25 22.09.17 -1,37 % 9,01 % -8,30 % -2,47 % 1,39 %
Devon Energy Corp. 35,780 0,430 1,22 22.09.17 6,33 % 17,70 % 19,23 % -14,57 % -21,66 %
Digital Realty Trust Inc. 114,510 -1,720 -1,48 22.09.17 -2,62 % -2,65 % -4,91 % 16,74 % 16,54 %
Discover Financial Services 61,410 0,910 1,50 22.09.17 3,33 % 3,21 % 1,94 % 6,25 % -14,81 %
Discovery Communications Inc. 20,420 0,120 0,59 22.09.17 -1,07 % -3,77 % -17,73 % -17,76 % -23,81 %
Discovery Communications Inc. 21,410 0,060 0,28 22.09.17 -2,42 % -4,80 % -16,11 % -16,73 % -21,89 %
Dish Network Corp. 53,260 0,010 0,02 22.09.17 0,59 % -7,29 % -15,49 % -1,11 % -8,06 %
Dollar General Corp. (New) 77,660 0,890 1,16 22.09.17 0,08 % 1,57 % 9,26 % 8,03 % 4,83 %
Dollar Tree Inc. 84,620 1,480 1,78 22.09.17 1,37 % 12,90 % 25,03 % 5,68 % 9,64 %
Dominion Energy Inc. 77,040 -0,260 -0,34 22.09.17 -3,09 % -2,44 % -2,39 % 0,00 % 0,59 %
Dover Corp. 92,430 0,390 0,42 22.09.17 2,92 % 9,01 % 18,90 % 29,18 % 23,36 %
Dowdupont Inc. 69,960 -0,360 -0,51 22.09.17 0,14 % 0,00 % 0,00 % 0,00 % 0,00 %
Dr. Pepper Snapple Group Inc. 88,740 -0,760 -0,85 22.09.17 -3,06 % -3,47 % -3,86 % -3,54 % -2,14 %
DTE Energy Co. 108,380 -0,640 -0,59 22.09.17 -2,75 % -2,68 % -1,10 % 12,71 % 10,02 %
Duke Energy Corp. (New) 84,250 -0,910 -1,07 22.09.17 -3,49 % -2,66 % -2,35 % 2,11 % 8,54 %
Duke Realty Corp. 29,110 -0,310 -1,05 22.09.17 -1,56 % -0,24 % 2,93 % 6,24 % 9,60 %
DXC Technology Co. 85,510 0,670 0,79 22.09.17 0,52 % 0,00 % 11,46 % 0,00 % 0,00 %
E*TRADE Financial Corp. 41,820 0,040 0,10 22.09.17 1,85 % 2,90 % 14,61 % 46,74 % 20,69 %
Eastman Chemical Co. 86,470 0,670 0,78 22.09.17 1,78 % 2,77 % 4,37 % 31,47 % 14,97 %
Eaton Corporation PLC 78,100 0,040 0,05 22.09.17 1,55 % 8,62 % 3,08 % 21,86 % 16,41 %
eBay Inc. 38,290 0,040 0,10 22.09.17 -0,29 % 10,00 % 9,03 % 18,62 % 28,97 %
Ecolab Inc. 131,330 0,390 0,30 22.09.17 0,21 % -0,11 % -0,27 % 10,23 % 12,04 %
Edison International 78,280 -0,380 -0,48 22.09.17 -3,60 % -2,27 % -3,23 % 3,67 % 8,74 %
Edwards Lifesciences Corp. 110,640 0,310 0,28 22.09.17 -2,52 % -3,13 % -6,66 % -8,46 % 18,08 %
Electronic Arts Inc. 118,500 0,480 0,41 22.09.17 -0,77 % -0,45 % 5,22 % 42,48 % 50,46 %
Eli Lilly and Company 83,910 0,580 0,70 22.09.17 1,78 % 7,22 % -0,47 % 3,22 % 14,09 %
Emerson Electric Co. 63,440 0,000 0,00 22.09.17 1,75 % 7,85 % 8,02 % 20,15 % 13,79 %
Entergy Corp. 76,750 -1,210 -1,55 22.09.17 -2,69 % -2,35 % -3,08 % -6,09 % 4,46 %
Envision Healthcare Hldgs Inc. 44,690 -0,070 -0,16 22.09.17 -7,84 % -13,07 % -25,89 % 105,94 % -29,39 %
EOG Resources Inc. 94,550 0,660 0,70 22.09.17 1,43 % 12,24 % 7,82 % 2,09 % -6,48 %
EQT Corp. 64,260 0,420 0,66 22.09.17 -0,93 % 4,90 % 23,51 % -13,56 % -1,74 %
Equifax Inc. 105,040 6,790 6,91 22.09.17 12,97 % -26,14 % -24,39 % -21,41 % -11,16 %
Equinix Inc. 441,660 -5,130 -1,15 22.09.17 -3,00 % -3,21 % 0,31 % 22,55 % 23,57 %
Equity Residential 65,880 -0,590 -0,89 22.09.17 -2,95 % -2,75 % -1,73 % 2,36 % 2,36 %
Essex Property Trust Inc. 255,000 -0,270 -0,11 22.09.17 -2,67 % -3,86 % -3,38 % 10,30 % 9,68 %
Estée Lauder Compan. Inc., The 107,580 -0,670 -0,62 22.09.17 -1,92 % 2,25 % 10,36 % 21,23 % 40,65 %
Everest Reinsurance Group Ltd. 226,260 -1,040 -0,46 22.09.17 -2,33 % -14,19 % -11,87 % 15,94 % 4,56 %
Eversource Energy 60,710 -0,730 -1,19 22.09.17 -3,42 % -3,50 % -2,40 % 8,76 % 9,92 %
Exelon Corp. 37,120 -0,030 -0,08 22.09.17 -1,30 % -2,90 % 1,25 % 5,39 % 4,59 %
Expedia Inc. 145,770 2,650 1,85 22.09.17 2,56 % -1,25 % -4,10 % 34,02 % 28,68 %
Expeditors Intl of Wash. Inc. 58,190 0,440 0,76 22.09.17 2,27 % 4,38 % 6,19 % 14,32 % 9,88 %
Express Scripts Holding Inc. 62,290 0,570 0,92 22.09.17 -0,57 % 1,09 % -4,04 % -12,30 % -9,46 %
Extra Space Storage Inc. 78,890 -0,450 -0,57 22.09.17 -0,23 % 4,05 % 2,04 % -0,68 % 2,14 %
Exxon Mobil Corp. 79,920 0,030 0,04 22.09.17 -0,19 % 4,14 % -1,43 % -4,33 % -11,46 %
F5 Networks Inc. 119,730 2,020 1,72 22.09.17 2,67 % 2,38 % -7,15 % -1,24 % -17,27 %
Facebook Inc. 170,540 -0,570 -0,33 22.09.17 -0,64 % 0,54 % 11,17 % 31,10 % 48,12 %
Fastenal Co. 44,250 -0,240 -0,54 22.09.17 0,73 % 6,88 % 3,41 % 9,12 % -5,81 %
Federal Realty Invest. Trust 123,140 -0,710 -0,57 22.09.17 -5,28 % -2,93 % -0,85 % -22,34 % -13,35 %
Fedex Corp. 220,000 1,170 0,53 22.09.17 2,41 % 5,12 % 3,96 % 26,68 % 18,15 %
Fidelity Natl Inform.Svcs Inc. 93,050 0,330 0,36 22.09.17 1,13 % 1,61 % 9,65 % 20,03 % 23,02 %
Fifth Third Bancorp 27,310 -0,230 -0,84 22.09.17 2,98 % 2,59 % 8,63 % 31,30 % 1,26 %
FirstEnergy Corp. 30,890 -0,260 -0,83 22.09.17 -2,31 % -6,11 % 5,86 % -11,34 % -0,26 %
Fiserv Inc. 126,230 1,470 1,18 22.09.17 1,76 % 2,94 % 1,06 % 23,37 % 18,74 %
Flir Systems Inc. 39,210 -0,300 -0,76 22.09.17 -1,58 % 3,48 % 11,27 % 24,44 % 8,34 %
Flowserve Corp. 42,630 0,440 1,04 22.09.17 3,00 % 10,07 % -3,66 % -11,50 % -11,28 %
Fluor Corp. (New) 40,930 -0,170 -0,41 22.09.17 1,24 % 8,80 % -6,96 % -18,47 % -22,07 %
FMC Corp. 89,950 -0,490 -0,54 22.09.17 0,44 % 6,50 % 21,13 % 83,95 % 59,03 %
Foot Locker Inc. 33,600 -0,100 -0,30 22.09.17 -9,02 % 1,27 % -29,26 % -49,92 % -52,60 %
Ford Motor Co. 11,840 0,120 1,02 22.09.17 1,89 % 11,17 % 6,38 % -2,79 % -2,39 %
Fortive Corp. 70,030 0,100 0,14 22.09.17 0,97 % 6,33 % 9,25 % 35,61 % 30,58 %
Fortune Brands Home & Securi 64,910 0,020 0,03 22.09.17 0,26 % 2,62 % -0,28 % 11,53 % 21,42 %
Franklin Resources Inc. 42,890 0,310 0,73 22.09.17 0,97 % 0,89 % -3,27 % 18,94 % 8,36 %
Freep. McMoRan Copp.&Gold Inc. Reg. Shares DL-,10 14,060 0,080 0,57 22.09.17 1,30 % -6,70 % 22,79 % 28,05 % 6,60 %
Gallagher & Co., Arthur J. 60,990 0,320 0,53 22.09.17 1,01 % 4,04 % 6,81 % 19,35 % 17,38 %
Gap Inc. 28,360 0,500 1,79 22.09.17 1,32 % 23,52 % 28,79 % 25,60 % 26,38 %
Garmin Ltd. 52,410 0,410 0,79 22.09.17 -0,13 % 1,37 % 1,98 % 7,66 % 8,08 %
Gartner Inc. 124,180 0,800 0,65 22.09.17 2,41 % 4,12 % 0,96 % 37,20 % 22,87 %
General Dynamics Corp. 205,410 -0,310 -0,15 22.09.17 3,60 % 2,08 % 2,06 % 32,64 % 18,97 %
General Electric Co. 24,870 0,120 0,48 22.09.17 3,93 % 1,10 % -9,73 % -17,21 % -21,30 %
General Growth Prop.Inc.(New) 20,500 -0,240 -1,16 22.09.17 -6,05 % -0,34 % -12,69 % -28,52 % -17,93 %
General Mills Inc. 51,230 -0,460 -0,89 22.09.17 -8,19 % -10,90 % -8,52 % -21,26 % -17,06 %
General Motors Co. 39,420 0,320 0,82 22.09.17 1,39 % 11,67 % 15,30 % 21,70 % 13,15 %
Genuine Parts Co. 87,980 1,630 1,89 22.09.17 1,53 % 6,46 % -1,88 % -13,29 % -7,91 %
Gilead Sciences Inc. 83,270 0,650 0,79 22.09.17 1,10 % 13,54 % 18,15 % 2,15 % 16,28 %
Global Payments Inc. 95,820 -0,520 -0,54 22.09.17 -1,78 % -0,03 % 5,90 % 26,00 % 38,05 %
Goodyear Tire & Rubber Co.,The 32,570 0,110 0,34 22.09.17 0,43 % 8,78 % -2,57 % 0,46 % 5,51 %
Grainger Inc., W.W. 176,610 1,020 0,58 22.09.17 4,53 % 7,41 % 2,22 % -19,90 % -23,96 %
Halliburton Co. 44,250 0,770 1,77 22.09.17 4,59 % 14,46 % 5,61 % 3,75 % -18,19 %
Hanesbrands Inc. 24,540 0,040 0,16 22.09.17 -2,89 % 4,65 % 10,29 % -6,16 % 13,77 %
Harley-Davidson Inc. 48,240 0,280 0,58 22.09.17 0,48 % 0,56 % -14,21 % -7,14 % -17,31 %
Harris Corp. 131,800 0,740 0,56 22.09.17 3,89 % 9,84 % 18,75 % 45,15 % 28,62 %
Hartford Finl SvcsGrp Inc.,The 54,450 0,100 0,18 22.09.17 1,38 % -2,00 % 5,52 % 26,25 % 14,27 %
Hasbro Inc. 96,140 1,300 1,37 22.09.17 1,37 % 1,68 % -12,97 % 21,08 % 23,59 %
HCA Healthcare Inc. 78,220 0,570 0,73 22.09.17 -1,29 % -0,72 % -9,19 % 2,41 % 5,67 %
HCP Inc. 27,870 -0,700 -2,45 22.09.17 -5,37 % -3,73 % -16,00 % -28,37 % -6,22 %
Helmerich & Payne Inc. 51,010 0,580 1,15 22.09.17 1,63 % 16,33 % -2,13 % -14,44 % -34,10 %
Henry Schein Inc. 79,600 0,280 0,35 22.09.17 -3,96 % -53,53 % -56,80 % -52,42 % -47,53 %
Hershey Co., The 106,480 -1,070 -0,99 22.09.17 -3,64 % -1,19 % -3,66 % 10,73 % 2,95 %
Hess Corp. 44,500 0,870 1,99 22.09.17 5,53 % 15,28 % 8,51 % -6,86 % -28,56 %
Hewlett Packard Enterprise Co. 14,260 0,470 3,41 22.09.17 5,47 % -19,30 % -14,51 % -38,64 % -38,38 %
Hilton Worldwide Holdings Inc. 68,190 0,850 1,26 22.09.17 2,34 % 7,69 % 4,59 % -3,56 % -16,43 %
Hologic Inc. 37,570 0,040 0,11 22.09.17 -0,40 % -0,08 % -19,19 % -3,12 % -6,36 %
Honeywell International Inc. 141,750 0,890 0,63 22.09.17 2,02 % 3,54 % 5,73 % 21,33 % 22,36 %
Hormel Foods Corp. 31,270 0,080 0,26 22.09.17 -0,35 % -9,05 % -9,15 % -17,17 % -10,17 %
Host Hotels & Resorts Inc. 18,330 0,040 0,22 22.09.17 0,44 % 3,85 % -1,82 % 12,39 % -2,71 %
HP Inc. 19,940 0,170 0,86 22.09.17 2,41 % 4,84 % 12,59 % 31,88 % 34,37 %
Humana Inc. 239,090 0,450 0,19 22.09.17 -4,09 % -5,60 % 0,88 % 35,85 % 17,18 %
Hunt (J.B.) Transport Svcs Inc 105,750 1,080 1,03 22.09.17 4,12 % 8,02 % 22,31 % 32,92 % 8,94 %
Huntington Bancshares Inc. 13,390 -0,010 -0,07 22.09.17 4,94 % 5,43 % 3,48 % 35,53 % 1,29 %
IDEXX Laboratories Inc. 157,500 1,740 1,12 22.09.17 -0,92 % 3,06 % -5,42 % 39,27 % 34,31 %
Illinois Tool Works Inc. 147,400 0,060 0,04 22.09.17 1,21 % 6,91 % 0,83 % 23,15 % 20,37 %
Illumina Inc. 201,410 1,170 0,58 22.09.17 -4,42 % 3,41 % 10,07 % 12,28 % 57,30 %
Incyte Corp. 110,850 -4,200 -3,65 22.09.17 -6,97 % -10,50 % -18,27 % 24,15 % 10,55 %
Ingersoll-Rand PLC 88,920 -0,320 -0,36 22.09.17 -0,58 % 3,25 % -1,98 % 34,63 % 18,50 %
Int. Business Machines (IBM) 145,130 -0,130 -0,09 22.09.17 0,21 % 2,93 % -6,00 % -7,03 % -12,57 %
Intel Corp. 37,180 -0,020 -0,05 22.09.17 0,49 % 7,30 % 8,21 % -0,99 % 2,51 %
Intercontinental Exchange Inc. Registered Shares DL -,01 67,050 0,220 0,33 22.09.17 2,55 % 2,37 % 4,52 % 19,43 % 18,84 %
International Paper Co. 56,050 -1,240 -2,16 22.09.17 -0,32 % 4,28 % -0,69 % 16,99 % 5,64 %
Interpublic Group of Comp.Inc. 21,280 0,430 2,06 22.09.17 6,35 % 1,82 % -11,81 % -5,42 % -9,10 %
Intl Flavors & Fragrances Inc. 144,210 0,440 0,31 22.09.17 0,30 % 6,15 % 6,72 % 1,64 % 22,39 %
Intuit Inc. 146,320 1,830 1,27 22.09.17 2,95 % 5,91 % 4,52 % 32,11 % 27,67 %
Intuitive Surgical Inc. 1.031,520 1,550 0,15 22.09.17 -0,63 % 3,50 % 8,11 % 43,62 % 62,66 %
Invesco Ltd. 34,200 0,640 1,91 22.09.17 3,39 % 2,86 % -2,26 % 9,97 % 12,72 %
Iron Mountain Inc. 40,130 0,360 0,91 22.09.17 1,67 % 6,36 % 17,61 % 7,26 % 23,55 %
J.M. Smucker Co. 104,590 -1,330 -1,26 22.09.17 -5,11 % -12,74 % -13,73 % -24,14 % -18,33 %
Jacobs Engineering Group Inc. 57,540 0,130 0,23 22.09.17 2,84 % 13,11 % 9,27 % 12,36 % 0,95 %
Johnson & Johnson 131,390 -0,360 -0,27 22.09.17 -2,28 % -2,46 % -3,43 % 9,99 % 14,04 %
Johnson Controls Inc. 39,890 -0,090 -0,23 22.09.17 0,20 % 3,29 % -4,62 % -11,28 % -3,16 %
JPMorgan Chase & Co. 94,830 -0,200 -0,21 22.09.17 3,50 % 3,57 % 8,97 % 40,72 % 9,90 %
Juniper Networks Inc. 27,990 0,280 1,01 22.09.17 0,68 % 1,52 % -1,30 % 17,31 % -0,96 %
Kansas City Southern 107,740 -0,170 -0,16 22.09.17 0,45 % -0,79 % 5,98 % 19,67 % 26,98 %
Kellogg Co. 63,360 -0,560 -0,88 22.09.17 -7,26 % -9,49 % -10,01 % -19,00 % -14,04 %
Keycorp 18,320 0,070 0,38 22.09.17 2,23 % 3,97 % 0,66 % 48,46 % 0,27 %
Kimberly-Clark Corp. 117,520 -0,600 -0,51 22.09.17 -2,96 % -4,01 % -10,80 % -7,63 % 2,98 %
Kimco Realty Corp. 19,180 -0,080 -0,42 22.09.17 -6,67 % -1,84 % 7,45 % -35,87 % -23,77 %
Kinder Morgan Inc. 19,270 -0,050 -0,26 22.09.17 -0,46 % 2,55 % 3,71 % -12,84 % -6,95 %
KLA-Tencor Corp. 100,590 1,070 1,08 22.09.17 1,98 % 9,68 % 4,06 % 44,71 % 27,85 %
Kohl's Corp. 46,070 1,130 2,51 22.09.17 2,08 % 20,73 % 26,91 % 5,88 % -6,70 %
Kraft Heinz Co., The 77,520 -1,480 -1,87 22.09.17 -4,80 % -8,85 % -13,00 % -12,95 % -11,25 %
Kroger Co., The 20,150 -0,070 -0,35 22.09.17 -6,58 % -12,16 % -10,68 % -34,47 % -41,61 %
L Brands Inc. 39,650 2,770 7,51 22.09.17 -2,20 % 7,92 % -24,98 % -46,62 % -39,78 %
L-3 Communications Hldgs Inc. 189,280 -1,040 -0,55 22.09.17 1,96 % 4,77 % 12,11 % 26,12 % 24,44 %
Laboratory Corp.of Amer. Hldgs 155,070 1,180 0,77 22.09.17 0,96 % -0,21 % 3,15 % 12,51 % 20,79 %
Lam Research Corp. 176,730 4,420 2,57 22.09.17 2,16 % 7,89 % 17,79 % 90,67 % 67,15 %
Leggett & Platt Inc. 46,760 0,820 1,78 22.09.17 1,98 % 0,75 % -11,20 % -5,27 % -4,34 %
Lennar Corp. 50,280 -0,210 -0,42 22.09.17 -2,01 % -3,18 % -4,06 % 15,32 % 17,12 %
Leucadia National Corp. 24,540 0,070 0,29 22.09.17 7,02 % 2,25 % -1,96 % 28,68 % 5,55 %
Level 3 Communications Inc. 52,770 0,050 0,09 22.09.17 -1,12 % -2,06 % -11,86 % 11,33 % -6,37 %
Lincoln National Corp. 72,880 0,550 0,76 22.09.17 4,70 % 7,43 % 11,18 % 56,23 % 9,97 %
LKQ Corp. 34,910 0,320 0,93 22.09.17 -1,24 % 1,78 % 8,72 % -2,32 % 13,90 %
Lockheed Martin Corp. 308,540 0,530 0,17 22.09.17 2,06 % 1,23 % 10,02 % 25,11 % 23,45 %
Loews Corp. 47,610 -0,100 -0,21 22.09.17 0,25 % -0,33 % 2,61 % 15,70 % 1,67 %
Lowe's Companies Inc. 78,230 0,190 0,24 22.09.17 0,31 % 3,18 % -0,14 % 8,53 % 10,00 %
Lyondellbasell Industries NV 96,870 1,080 1,13 22.09.17 1,79 % 9,12 % 21,07 % 23,91 % 12,93 %
M and T Bank Corp. 153,820 -0,600 -0,39 22.09.17 2,55 % 0,14 % -3,56 % 31,98 % -1,67 %
Macerich Co., The 52,720 -0,200 -0,38 22.09.17 -5,23 % -0,58 % -7,77 % -36,04 % -25,58 %
Macy's, Inc. 21,530 0,370 1,75 22.09.17 -4,65 % 5,44 % -2,54 % -40,62 % -39,88 %
Marathon Oil Corp. 12,790 0,060 0,47 22.09.17 6,58 % 17,45 % 10,35 % -13,99 % -26,11 %
Marathon Petroleum Corp. 54,730 0,360 0,66 22.09.17 3,34 % 10,19 % 6,96 % 28,20 % 8,70 %
Marriott International Inc. 107,880 0,310 0,29 22.09.17 2,36 % 5,76 % 3,84 % 54,53 % 30,48 %
Marsh & McLennan Cos. Inc. 82,720 0,380 0,46 22.09.17 1,72 % 5,87 % 5,13 % 21,27 % 22,38 %
Martin Marietta Materials Inc. 198,690 -1,110 -0,56 22.09.17 -0,26 % -1,06 % -12,24 % 9,22 % -10,31 %
Masco Corp. 38,090 0,370 0,98 22.09.17 2,09 % 2,97 % -1,88 % 10,95 % 20,46 %
MasterCard Inc. 141,890 0,170 0,12 22.09.17 0,22 % 6,05 % 15,08 % 38,94 % 37,42 %
Mattel Inc. 14,520 -0,480 -3,20 22.09.17 -8,45 % -11,03 % -28,47 % -54,78 % -47,30 %
McCormick & Co. Inc. 96,060 -0,790 -0,82 22.09.17 -2,91 % -1,27 % -3,66 % -1,17 % 2,93 %
McDonald's Corp. 158,910 -0,120 -0,08 22.09.17 1,27 % -0,46 % 2,66 % 35,40 % 30,55 %
McKesson Corp. 154,010 1,440 0,94 22.09.17 2,76 % 3,86 % -6,98 % -8,39 % 9,65 %
Medtronic Inc. 79,700 0,170 0,21 22.09.17 -2,95 % -2,52 % -10,54 % -9,25 % 11,89 %
Merck & Co. Inc. 65,130 -0,470 -0,72 22.09.17 -1,56 % 4,34 % -1,35 % 3,35 % 10,63 %
MetLife Inc. 50,540 0,090 0,18 22.09.17 4,12 % 7,14 % -3,20 % 13,32 % -6,22 %
Metro One Telecom. Inc. 48,430 0,260 0,54 22.09.17 2,17 % 4,38 % 3,75 % 31,71 % 36,77 %
Mettler-Toledo Intl Inc. 632,860 1,450 0,23 22.09.17 1,10 % 6,78 % 6,23 % 53,92 % 51,20 %
MGM Resorts International 32,380 -0,680 -2,06 22.09.17 1,44 % 2,47 % -2,62 % 25,55 % 12,31 %
Michael Kors Holdings Ltd 46,160 0,240 0,52 22.09.17 2,76 % 10,43 % 32,53 % -7,88 % 7,40 %
Microchip Technology Inc. 89,690 1,310 1,48 22.09.17 0,08 % 8,44 % 12,01 % 46,62 % 39,81 %
Micron Technology Inc. 36,070 0,160 0,45 22.09.17 4,10 % 18,46 % 13,11 % 105,06 % 64,55 %
Microsoft Corp. 74,410 0,200 0,27 22.09.17 -1,20 % 1,71 % 5,91 % 28,69 % 19,75 %
Mid-America Apartm. Comm. Inc. 107,160 -0,110 -0,10 22.09.17 -0,98 % 0,25 % -1,96 % 11,76 % 9,44 %
Mohawk Industries Inc. 245,670 -8,440 -3,32 22.09.17 -3,53 % -1,57 % 1,22 % 18,86 % 23,03 %
Molson Coors Brewing Co. 82,810 0,000 0,00 22.09.17 -5,09 % -6,98 % -3,65 % -22,45 % -14,90 %
Mondelez International Inc. 40,050 -0,140 -0,35 22.09.17 -1,98 % -7,80 % -10,70 % -7,66 % -9,65 %
Monsanto Co. 119,770 0,370 0,31 22.09.17 1,27 % 2,24 % 2,51 % 14,94 % 13,84 %
Monster Beverage Corp. (NEW) 55,810 0,240 0,43 22.09.17 -0,66 % 0,78 % 9,75 % 12,43 % 25,87 %
Moody's Corp. 138,030 1,380 1,01 22.09.17 1,25 % 4,11 % 16,27 % 25,30 % 46,42 %
Morgan Stanley 48,220 -0,040 -0,08 22.09.17 3,48 % 5,82 % 8,09 % 49,57 % 14,13 %
Mosaic Co., The 20,860 -0,080 -0,38 22.09.17 0,97 % 4,61 % -6,54 % -18,36 % -28,88 %
Motorola Solutions Inc. 84,290 -0,700 -0,82 22.09.17 -1,39 % -2,45 % -3,51 % 10,63 % 1,69 %
Mylan N.V. 31,300 0,060 0,19 22.09.17 -2,28 % 1,85 % -19,76 % -26,51 % -17,96 %
Nasdaq Inc. 76,420 0,320 0,42 22.09.17 2,23 % -0,03 % 9,91 % 8,49 % 13,86 %
National Oilwell Varco Inc. 35,540 0,340 0,97 22.09.17 3,16 % 17,68 % 11,62 % 3,37 % -5,07 %
Navient Corp. 14,780 0,750 5,35 22.09.17 6,03 % 8,20 % -6,87 % 7,73 % -10,04 %
NetApp Inc. 42,550 0,690 1,65 22.09.17 3,70 % 9,98 % 8,80 % 18,33 % 20,64 %
Netflix Inc. 187,350 -1,400 -0,74 22.09.17 2,74 % 10,64 % 20,96 % 95,46 % 51,33 %
Newell Brands Inc. 41,390 -0,090 -0,22 22.09.17 -4,19 % -15,11 % -20,69 % -20,95 % -7,30 %
Newfield Exploration Co. 28,820 0,350 1,23 22.09.17 6,31 % 16,44 % 4,57 % -33,44 % -28,84 %
Newmont Mining Corp. 37,890 0,460 1,23 22.09.17 0,11 % 3,81 % 13,10 % -7,06 % 11,21 %
News Corp. 13,030 -0,050 -0,38 22.09.17 -0,46 % -2,69 % -3,12 % -7,85 % 13,70 %
News Corp. 13,400 -0,050 -0,37 22.09.17 -0,37 % -2,90 % -3,94 % -7,78 % 13,56 %
Nextera Energy Inc. 146,360 -0,420 -0,29 22.09.17 -2,49 % -2,97 % 3,37 % 14,32 % 22,52 %
Nielsen Holdings PLC 40,890 0,370 0,91 22.09.17 2,61 % 3,00 % 10,10 % -22,44 % -2,53 %
NIKE Inc. 53,240 0,050 0,09 22.09.17 -1,12 % -1,64 % 1,60 % -3,92 % 4,74 %
NISOURCE Inc. 25,690 -0,430 -1,65 22.09.17 -4,82 % -4,64 % -0,89 % 1,66 % 16,03 %
Noble Energy Inc. 27,020 0,070 0,26 22.09.17 3,72 % 15,03 % -2,67 % -20,60 % -29,01 %
Nordstrom Inc. 46,880 0,600 1,30 22.09.17 0,30 % 5,30 % -1,26 % -7,15 % -2,19 %
Norfolk Southern Corp. 130,990 0,280 0,21 22.09.17 2,30 % 8,80 % 11,58 % 39,48 % 21,21 %
Northern Trust Corp. 90,420 -0,420 -0,46 22.09.17 2,80 % 1,53 % -4,16 % 30,29 % 1,54 %
Northrop Grumman Corp. 281,550 1,130 0,40 22.09.17 5,44 % 3,20 % 9,60 % 30,05 % 21,06 %
NRG Energy Inc. 23,940 -0,250 -1,03 22.09.17 4,40 % -7,42 % 38,94 % 103,57 % 95,27 %
Nucor Corp. 54,530 0,020 0,04 22.09.17 1,93 % -0,22 % -3,83 % 13,91 % -8,38 %
NVIDIA Corp. 179,000 -1,760 -0,97 22.09.17 -0,62 % 10,12 % 13,03 % 175,30 % 67,63 %
O'Reilly Automotive Inc.[New] 209,590 7,330 3,62 22.09.17 -0,13 % 5,86 % -4,79 % -26,09 % -24,72 %
Occidental Petroleum Corp. 62,940 0,190 0,30 22.09.17 2,59 % 6,39 % 4,53 % -11,86 % -11,64 %
Omnicom Group Inc. 75,000 0,770 1,04 22.09.17 2,68 % -4,01 % -8,81 % -12,14 % -11,88 %
Oneok Inc. (New) 54,700 -0,360 -0,65 22.09.17 -2,67 % 3,42 % 14,46 % 10,19 % -4,72 %
Oracle Corp. 48,160 0,190 0,40 22.09.17 -1,19 % -2,23 % -4,25 % 21,89 % 25,25 %
Paccar Inc. 71,420 0,710 1,00 22.09.17 2,15 % 10,81 % 13,82 % 22,19 % 11,77 %
Packaging Corp. of America 116,210 -2,590 -2,18 22.09.17 0,28 % 6,82 % 7,87 % 44,11 % 37,01 %
Parker-Hannifin Corp. 177,110 1,200 0,68 22.09.17 4,37 % 11,30 % 12,52 % 42,88 % 26,51 %
Patterson Companies Inc. 37,400 0,280 0,75 22.09.17 -2,93 % 1,08 % -21,97 % -20,73 % -8,87 %
Paychex Inc. 59,750 1,570 2,70 22.09.17 3,28 % 6,49 % 0,59 % -1,03 % -1,86 %
PayPal Holdings Inc. 65,080 0,450 0,70 22.09.17 4,13 % 6,97 % 20,81 % 60,73 % 64,88 %
Pentair PLC 67,050 0,270 0,40 22.09.17 3,79 % 9,20 % 3,22 % 7,71 % 19,58 %
People's United Financial Inc. 17,380 -0,030 -0,17 22.09.17 2,78 % 4,07 % 0,99 % 9,65 % -10,23 %
PepsiCo Inc. 111,850 -0,950 -0,84 22.09.17 -2,61 % -5,15 % -3,70 % 3,74 % 6,90 %
PerkinElmer Inc. 68,170 -0,030 -0,04 22.09.17 -1,32 % 4,97 % 0,55 % 22,59 % 30,72 %
Perrigo Co. PLC 84,930 -0,110 -0,13 22.09.17 -2,27 % 8,05 % 13,77 % -12,55 % 2,04 %
Pfizer Inc. 35,960 -0,010 -0,03 22.09.17 1,70 % 8,48 % 5,58 % 5,30 % 10,71 %
PG & E Corp. 68,900 -0,280 -0,40 22.09.17 -1,95 % -1,11 % 0,13 % 7,62 % 13,38 %
Philip Morris Internat. Inc. 112,510 -0,410 -0,36 22.09.17 -2,83 % -3,20 % -6,01 % 10,61 % 22,98 %
Phillips 66 89,890 0,750 0,84 22.09.17 2,53 % 9,32 % 13,91 % 12,32 % 4,03 %
Pinnacle West Capital Corp. 86,150 -0,970 -1,11 22.09.17 -3,50 % -3,72 % -2,29 % 8,93 % 10,41 %
Pioneer Natural Resources Co. 144,010 2,000 1,41 22.09.17 5,17 % 12,46 % -6,94 % -19,57 % -20,03 %
PNC Financial Services Group 133,430 0,080 0,06 22.09.17 4,09 % 4,64 % 10,49 % 48,26 % 14,08 %
PPG Industries Inc. 108,760 -0,230 -0,21 22.09.17 2,31 % 4,04 % -1,64 % 5,45 % 14,77 %
PPL Corp. 38,470 -0,340 -0,88 22.09.17 -2,14 % -1,46 % -1,41 % 7,40 % 12,98 %
Praxair Inc. 137,600 -0,970 -0,70 22.09.17 2,52 % 3,65 % 3,87 % 16,25 % 17,42 %
Principal Financial Group Inc. 63,120 0,190 0,30 22.09.17 0,98 % 0,40 % 0,69 % 26,54 % 9,09 %
Progressive Corp. 47,980 0,300 0,63 22.09.17 4,26 % -1,86 % 8,82 % 53,44 % 35,15 %
ProLogis Inc. 63,680 -0,680 -1,06 22.09.17 -2,33 % 3,21 % 10,48 % 17,08 % 20,63 %
Prudential Financial Inc. 105,000 0,220 0,21 22.09.17 2,16 % 3,04 % 1,64 % 31,02 % 0,90 %
Public Service Ent. Group Inc. 46,190 -0,030 -0,06 22.09.17 0,81 % -1,72 % 5,77 % 5,77 % 5,26 %
Public Storage 213,710 -1,160 -0,54 22.09.17 -0,21 % 6,01 % 1,20 % -3,65 % -4,38 %
Pulte Group Inc. 25,880 0,230 0,90 22.09.17 -1,56 % 2,41 % 7,65 % 30,31 % 40,81 %
PVH Corp. 126,070 0,220 0,17 22.09.17 -1,58 % 4,78 % 15,59 % 15,86 % 39,71 %
Qorvo Inc. 71,200 0,590 0,84 22.09.17 -5,68 % 0,27 % 1,01 % 25,97 % 35,03 %
QUALCOMM Inc. 52,090 0,060 0,12 22.09.17 -0,19 % -0,50 % -7,76 % -17,99 % -20,17 %
Quanta Services Inc. 37,120 0,060 0,16 22.09.17 2,26 % 8,22 % 18,94 % 43,10 % 6,51 %
Quest Diagnostics Inc. 102,110 0,560 0,55 22.09.17 -2,72 % -4,43 % -6,80 % 19,11 % 11,11 %
Quintiles IMS Holdings Inc. 94,700 0,480 0,51 22.09.17 0,24 % -0,03 % 4,20 % 21,22 % 24,52 %
Ralph Lauren Corp. 88,420 -0,060 -0,07 22.09.17 -2,70 % 3,63 % 23,79 % -10,66 % -2,10 %
Range Resources Corp. 18,920 0,120 0,64 22.09.17 2,05 % 5,35 % -11,71 % -50,64 % -44,94 %
Raymond James Financial Inc. 82,910 0,170 0,21 22.09.17 3,94 % 4,95 % 7,41 % 41,36 % 19,69 %
Raytheon Co. 184,690 -0,350 -0,19 22.09.17 1,20 % 3,05 % 14,67 % 32,42 % 30,06 %
Realty Income Corp. 57,570 -0,340 -0,59 22.09.17 -3,89 % 0,33 % 5,02 % -15,19 % 0,16 %
Red Hat Inc. 106,300 -0,540 -0,51 22.09.17 -0,93 % 1,34 % 7,50 % 32,84 % 52,51 %
Regency Centers Corp. 62,120 -0,300 -0,48 22.09.17 -4,43 % -4,86 % 3,05 % -21,71 % -9,91 %
Regeneron Pharmaceuticals Inc. 432,720 -0,730 -0,17 22.09.17 -0,17 % -9,60 % -17,82 % 6,06 % 17,88 %
Regions Financial Corp. 14,420 -0,010 -0,07 22.09.17 4,87 % 1,26 % 4,19 % 47,59 % 0,42 %
Republic Services Inc. 66,260 0,110 0,17 22.09.17 -0,94 % 2,17 % 3,71 % 29,39 % 16,14 %
ResMed Inc. 77,380 0,060 0,08 22.09.17 -2,33 % 3,80 % -0,32 % 20,94 % 24,71 %
Robert Half International Inc. 48,600 0,640 1,33 22.09.17 4,58 % 10,28 % 2,47 % 28,06 % -0,37 %
Rockwell Automation Inc. 177,550 0,220 0,12 22.09.17 2,20 % 8,81 % 10,60 % 49,73 % 32,11 %
Rockwell Collins Inc. 130,480 0,090 0,07 22.09.17 -0,47 % 4,98 % 25,47 % 53,47 % 40,66 %
Roper Technologies Inc. 246,160 -0,400 -0,16 22.09.17 3,50 % 5,88 % 5,92 % 35,16 % 34,45 %
Ross Stores Inc. 60,890 -0,020 -0,03 22.09.17 0,30 % 2,87 % 8,79 % -4,83 % -7,18 %
Royal Caribbean Cruises Ltd. 115,290 -0,900 -0,77 22.09.17 -4,66 % -4,73 % 2,80 % 62,40 % 40,53 %
S&P Global Inc. 156,800 1,050 0,67 22.09.17 1,82 % 2,59 % 7,86 % 23,63 % 45,81 %
salesforce.com Inc. 94,940 0,080 0,08 22.09.17 0,33 % 2,14 % 7,31 % 27,28 % 38,68 %
SBA Communications Corp. 142,620 -2,390 -1,65 22.09.17 -4,91 % -2,04 % 8,67 % 26,53 % 38,09 %
SCANA Corp. 55,220 -1,960 -3,43 22.09.17 -7,72 % -8,52 % -20,79 % -25,91 % -24,66 %
Schlumberger N.V. (Ltd.) 68,800 0,710 1,04 22.09.17 2,32 % 8,60 % 5,25 % -10,66 % -18,05 %
Schwab Corp., Charles 42,540 0,460 1,09 22.09.17 5,79 % 6,97 % 2,19 % 36,17 % 7,78 %
Scripps Networks Interact.Inc. 86,040 -0,040 -0,05 22.09.17 0,03 % 0,33 % 29,17 % 39,88 % 20,55 %
Seagate Technology PLC 33,570 0,850 2,60 22.09.17 0,06 % 3,96 % -20,09 % -7,77 % -12,05 %
Sealed Air Corp. 42,500 0,060 0,14 22.09.17 -2,19 % -6,59 % -5,39 % -8,13 % -6,26 %
Sempra Energy 115,940 0,030 0,03 22.09.17 -2,81 % -1,98 % 2,27 % 4,85 % 15,20 %
Sherwin-Williams Co. 349,760 0,150 0,04 22.09.17 2,57 % 3,16 % -1,41 % 25,08 % 30,15 %
Signet Jewelers Ltd. 64,390 -0,190 -0,29 22.09.17 -7,68 % 23,47 % 13,00 % -16,67 % -31,69 %
Simon Property Group Inc. 158,810 -0,770 -0,48 22.09.17 -3,62 % 3,64 % -0,20 % -25,61 % -10,62 %
Skyworks Solutions Inc. 103,080 0,950 0,93 22.09.17 -5,91 % 0,07 % -0,16 % 34,04 % 38,07 %
SL Green Realty Corp. 100,670 -0,460 -0,45 22.09.17 2,27 % 3,80 % -5,30 % -11,44 % -6,40 %
Smith Corp., A.O. 59,550 0,550 0,93 22.09.17 2,28 % 9,43 % 5,83 % 22,91 % 25,77 %
Snap-on Inc. 149,320 0,740 0,50 22.09.17 1,81 % 5,15 % -3,52 % -2,28 % -12,82 %
Southern Co., The 48,820 -0,450 -0,91 22.09.17 -3,59 % 1,81 % -3,10 % -8,71 % -0,75 %
Southwest Airlines Co. 54,930 0,300 0,55 22.09.17 0,38 % 2,81 % -10,71 % 47,15 % 10,21 %
Stanley Black & Decker Inc. 151,220 -0,750 -0,49 22.09.17 2,14 % 9,02 % 6,39 % 22,74 % 31,85 %
Starbucks Corp. 55,090 0,080 0,15 22.09.17 0,77 % 1,18 % -7,43 % 1,25 % -0,77 %
State Street Corp. 95,560 -0,390 -0,41 22.09.17 1,62 % 2,05 % 7,76 % 34,52 % 22,95 %
Stericycle Inc. 70,340 0,370 0,53 22.09.17 -2,47 % -2,17 % -8,90 % -11,25 % -8,70 %
Stryker Corp. 140,890 0,220 0,16 22.09.17 -2,08 % -3,18 % -0,23 % 18,95 % 17,59 %
SunTrust Banks Inc. 57,220 0,210 0,37 22.09.17 4,36 % 1,24 % 4,55 % 29,60 % 4,32 %
Symantec Corp. 33,020 -0,020 -0,06 22.09.17 -0,66 % 14,81 % 14,61 % 31,66 % 38,22 %
Synchrony Financial 29,470 0,580 2,01 22.09.17 1,55 % -2,87 % 0,58 % 7,24 % -18,75 %
Synopsys Inc. 80,360 0,300 0,37 22.09.17 0,70 % 1,93 % 7,74 % 34,70 % 36,53 %
Sysco Corp. 53,370 -0,500 -0,93 22.09.17 -0,54 % 3,39 % 1,12 % 6,70 % -3,61 %
T. Rowe Price Group Inc. 86,690 0,720 0,84 22.09.17 2,33 % 3,68 % 18,43 % 29,74 % 15,17 %
Target Corp. 58,990 0,660 1,13 22.09.17 -1,62 % 4,33 % 16,51 % -13,96 % -18,33 %
TE Connectivity Ltd. 82,360 0,150 0,18 22.09.17 0,26 % 4,58 % 4,50 % 27,87 % 18,88 %
TechnipFMC PLC 26,830 -0,380 -1,40 22.09.17 -0,85 % 6,01 % 0,37 % -4,14 % -24,49 %
Texas Instruments Inc. 88,270 2,220 2,58 22.09.17 4,04 % 9,31 % 11,66 % 26,53 % 20,92 %
Textron Inc. 53,090 0,030 0,06 22.09.17 2,87 % 10,47 % 17,02 % 33,66 % 9,33 %
The Coca-Cola Co. 45,490 0,090 0,20 22.09.17 -1,49 % -0,24 % 0,93 % 5,89 % 9,72 %
The Goldman Sachs Group Inc. 231,030 -0,260 -0,11 22.09.17 2,58 % 3,33 % 5,12 % 37,50 % -3,52 %
The Home Depot Inc. 159,970 0,780 0,49 22.09.17 0,99 % 6,71 % 2,89 % 24,25 % 19,31 %
The Priceline Group Inc. 1.862,130 -4,220 -0,23 22.09.17 1,03 % 2,42 % -0,04 % 27,03 % 27,02 %
The Procter & Gamble Co. 92,240 -0,400 -0,43 22.09.17 -1,10 % -0,59 % 3,61 % 3,65 % 9,71 %
The Walt Disney Co. 98,600 -0,290 -0,29 22.09.17 0,08 % -4,06 % -5,39 % 5,56 % -5,39 %
Thermo Fisher Scientific Inc. 188,300 0,390 0,21 22.09.17 -1,22 % 6,51 % 7,31 % 19,43 % 33,45 %
Tiffany & Co. 87,840 -2,010 -2,24 22.09.17 -2,74 % -0,75 % -3,93 % 20,64 % 13,44 %
Time Warner Inc. 102,400 -0,090 -0,09 22.09.17 0,52 % 0,59 % 3,02 % 32,45 % 6,08 %
TJX Companies Inc. 72,450 -0,370 -0,51 22.09.17 -1,75 % 1,19 % 5,38 % -5,29 % -3,57 %
Torchmark Corp. 78,640 -0,010 -0,01 22.09.17 1,84 % 1,56 % 3,97 % 21,25 % 6,62 %
Total System Services Inc. 69,070 0,260 0,38 22.09.17 3,55 % 4,13 % 16,63 % 45,23 % 40,87 %
Tractor Supply Co. 61,120 0,370 0,61 22.09.17 -3,23 % 8,81 % 16,35 % -10,45 % -19,39 %
TransDigm Group Inc. 260,400 -3,870 -1,46 22.09.17 1,66 % -5,43 % -2,65 % -9,22 % 4,60 %
Travelers Companies Inc.,The 122,040 0,550 0,45 22.09.17 1,11 % -4,48 % -4,89 % 4,55 % -0,31 %
Tripadvisor Inc. 44,365 0,125 0,28 22.09.17 0,99 % 7,97 % 24,13 % -27,70 % -4,32 %
Tyson Foods Inc. 65,410 0,080 0,12 22.09.17 -2,18 % 0,71 % 5,98 % -14,79 % 6,05 %
U.S. Bancorp 53,670 -0,070 -0,13 22.09.17 3,59 % 3,33 % 4,62 % 24,32 % 4,48 %
UDR Inc. 38,010 -0,140 -0,37 22.09.17 -2,36 % -3,18 % -4,09 % 3,97 % 4,19 %
Ulta Beauty Inc. 219,170 -0,570 -0,26 22.09.17 -2,45 % -5,39 % -22,87 % -8,07 % -14,03 %
Under Armour Inc. 16,410 -0,080 -0,49 22.09.17 -7,76 % -2,21 % -20,53 % -58,87 % -43,51 %
Under Armour Inc. 15,040 -0,095 -0,63 22.09.17 -8,63 % -2,46 % -21,83 % -56,66 % -40,25 %
Union Pacific Corp. 115,340 -0,100 -0,09 22.09.17 1,71 % 8,60 % 7,40 % 21,31 % 11,25 %
United Continental Holdg. Inc. 58,800 0,270 0,46 22.09.17 -1,67 % -9,12 % -24,08 % 15,20 % -19,32 %
United Parcel Service Inc. 117,670 0,410 0,35 22.09.17 -0,20 % 2,68 % 7,88 % 7,29 % 2,64 %
United Rentals Inc. 132,280 2,160 1,66 22.09.17 3,26 % 17,64 % 27,41 % 75,46 % 25,29 %
United Technologies Corp. 115,010 0,510 0,45 22.09.17 1,71 % -0,59 % -5,86 % 11,66 % 4,92 %
UnitedHealth Group Inc. 193,030 -2,180 -1,12 22.09.17 -2,60 % -0,90 % 3,50 % 36,86 % 20,61 %
Universal Health Services Inc. 109,290 0,860 0,79 22.09.17 -1,25 % 0,75 % -5,14 % -12,04 % 2,74 %
Unum Group 50,120 0,090 0,18 22.09.17 3,49 % 4,77 % 10,52 % 41,14 % 14,09 %
V.F. Corp. 62,200 0,350 0,57 22.09.17 -0,37 % -1,43 % 11,43 % 9,35 % 16,59 %
Valero Energy Corp. 74,290 0,930 1,27 22.09.17 4,44 % 13,28 % 14,61 % 33,65 % 8,74 %
Varian Medical Systems Inc. 105,190 0,560 0,54 22.09.17 -1,07 % 2,55 % 0,58 % 6,79 % 17,16 %
Ventas Inc. 66,040 -1,480 -2,19 22.09.17 -4,79 % -1,30 % -7,22 % -7,56 % 5,63 %
Verisign Inc. 104,580 -1,190 -1,13 22.09.17 0,18 % 4,33 % 11,83 % 33,26 % 37,48 %
Verisk Analytics Inc. 82,310 0,360 0,44 22.09.17 1,58 % 0,33 % -0,87 % 1,55 % 1,34 %
Verizon Communications Inc. 49,900 0,960 1,96 22.09.17 4,26 % 3,21 % 9,86 % -4,68 % -6,52 %
Vertex Pharmaceuticals Inc. 151,260 -0,800 -0,53 22.09.17 -1,53 % -2,71 % 11,61 % 64,20 % 105,32 %
Viacom Inc. 27,640 0,240 0,88 22.09.17 -0,11 % -2,88 % -18,99 % -22,84 % -21,29 %
VISA Inc. 105,560 0,250 0,24 22.09.17 0,25 % 1,43 % 12,36 % 26,63 % 35,30 %
Vornado Realty Trust 75,660 0,030 0,04 22.09.17 0,73 % 3,11 % -19,11 % -27,00 % -27,51 %
Vulcan Materials Co. 116,670 -0,330 -0,28 22.09.17 3,06 % 1,31 % -9,80 % 3,38 % -6,78 %
Wal-Mart Stores Inc. 79,530 -0,480 -0,60 22.09.17 -1,06 % -0,61 % 5,31 % 10,05 % 15,06 %
Walgreens Boots Alliance Inc. 78,410 0,210 0,27 22.09.17 -4,96 % -3,52 % 2,67 % -4,82 % -5,29 %
Waste Management Inc. (Del.) 78,200 -0,080 -0,10 22.09.17 0,26 % 2,62 % 6,60 % 22,17 % 10,28 %
Waters Corp. 181,160 -0,630 -0,35 22.09.17 -3,50 % -0,92 % -2,02 % 14,79 % 34,80 %
WEC Energy Group Inc. 63,610 -0,660 -1,03 22.09.17 -3,72 % -1,91 % -0,03 % 1,27 % 8,46 %
Wells Fargo & Co. 54,250 0,190 0,35 22.09.17 5,01 % 3,89 % 3,35 % 18,66 % -1,56 %
Welltower Inc. 70,960 -1,240 -1,72 22.09.17 -4,84 % 0,04 % -8,43 % -6,74 % 6,02 %
Western Digital Corp. 86,480 0,990 1,16 22.09.17 -2,30 % -0,20 % -4,18 % 54,24 % 27,27 %
Western Union Co. 18,990 0,080 0,42 22.09.17 0,42 % -0,21 % 1,12 % -6,55 % -12,57 %
WestRock Co. 55,670 -1,940 -3,37 22.09.17 -3,28 % 1,53 % -2,08 % 15,12 % 9,65 %
Weyerhaeuser Co. 33,580 0,160 0,48 22.09.17 1,79 % 7,01 % -1,06 % 4,68 % 11,60 %
Whirlpool Corp. 175,230 2,540 1,47 22.09.17 1,96 % 3,50 % -10,21 % 6,62 % -3,60 %
Williams Cos.Inc., The 30,000 0,010 0,03 22.09.17 -0,99 % 1,69 % 6,50 % -2,15 % -3,66 %
WILLIS TOWERS WATSON PLC 152,710 1,340 0,89 22.09.17 -0,28 % 2,15 % 5,28 % 18,21 % 24,89 %
Wyndham Worldwide Corp. 105,230 2,040 1,98 22.09.17 3,74 % 6,61 % 1,07 % 53,24 % 37,79 %
Wynn Resorts Ltd. 144,910 -0,490 -0,34 22.09.17 1,18 % 6,43 % 5,74 % 41,67 % 67,49 %
Xcel Energy Inc. 47,410 -0,600 -1,25 22.09.17 -3,40 % -3,50 % 0,15 % 10,51 % 16,49 %
Xerox Corp. 33,130 0,200 0,61 22.09.17 1,50 % 5,17 % 18,45 % -17,26 % -5,13 %
Xilinx Inc. 69,330 0,420 0,61 22.09.17 1,46 % 13,03 % 4,13 % 29,73 % 14,84 %
XL Group PLC 39,190 -0,450 -1,14 22.09.17 -0,46 % -10,93 % -9,43 % 12,97 % 5,18 %
Xylem Inc. 64,750 0,820 1,28 22.09.17 2,29 % 7,99 % 20,24 % 23,05 % 30,76 %
Yum! Brands, Inc. 75,970 -0,510 -0,67 22.09.17 0,96 % -0,76 % 1,92 % 20,21 % 19,96 %
Zimmer Biomet Holdings Inc. 114,400 1,340 1,19 22.09.17 -0,93 % 0,39 % -11,59 % -11,23 % 10,85 %
Zions Bancorporation 45,120 -0,240 -0,53 22.09.17 4,25 % 2,57 % 6,67 % 49,01 % 4,83 %
Zoetis Inc. 64,160 -0,080 -0,12 22.09.17 -1,60 % 4,16 % 1,02 % 24,27 % 19,86 %
Zum Index

Diese Seite benötigt Javascript
Bitte aktivieren Sie Javascript in Ihrem Browser, um diese Seite vollständig nutzen zu können. Ohne Javascript ist die Funktionalität der Seite stark eingeschränkt.